Time;durP1;ratioP1;P1;durP2;ratioP2;P2;SDS_P1;SDS_P2;PMS_P1;PMS_P2;Temp;Humidity;BMP_temperature;BMP_pressure;BME280_temperature;BME280_humidity;BME280_pressure;Samples;Min_cycle;Max_cycle;Signal;HPM_P1;HPM_P2
2023/07/20 00:02:00;;;;;;;8.10;2.47;;;;;;;;;;4968916;28;20196;-67
2023/07/20 00:04:27;;;;;;;4.33;2.60;;;;;;;;;;4969703;28;20287;-66
2023/07/20 00:06:53;;;;;;;5.47;2.87;;;;;;;;;;4969492;28;20285;-66
2023/07/20 00:09:37;;;;;;;4.30;2.80;;;;;;;;;;4969205;28;20173;-67
2023/07/20 00:12:04;;;;;;;5.83;3.37;;;;;;;;;;4968591;28;20228;-66
2023/07/20 00:14:32;;;;;;;7.33;3.53;;;;;;;;;;4969198;28;20190;-67
2023/07/20 00:16:58;;;;;;;7.43;3.13;;;;;;;;;;4968782;28;20200;-67
2023/07/20 00:19:26;;;;;;;9.07;5.07;;;;;;;;;;4969143;28;20198;-66
2023/07/20 00:21:53;;;;;;;5.40;3.23;;;;;;;;;;4969125;28;20194;-66
2023/07/20 00:24:20;;;;;;;6.10;4.03;;;;;;;;;;4952260;28;20205;-66
2023/07/20 00:26:47;;;;;;;7.00;3.10;;;;;;;;;;4969786;28;20191;-66
2023/07/20 00:29:31;;;;;;;7.87;4.83;;;;;;;;;;4973024;28;20181;-66
2023/07/20 00:31:58;;;;;;;7.47;4.37;;;;;;;;;;4955659;28;20279;-66
2023/07/20 00:34:25;;;;;;;7.17;4.23;;;;;;;;;;4972842;28;20189;-67
2023/07/20 00:36:53;;;;;;;8.00;3.60;;;;;;;;;;4955552;28;20661;-66
2023/07/20 00:39:19;;;;;;;6.60;3.83;;;;;;;;;;4955461;28;20205;-66
2023/07/20 00:41:46;;;;;;;5.23;2.97;;;;;;;;;;4972245;28;20189;-67
2023/07/20 00:44:13;;;;;;;6.77;3.20;;;;;;;;;;4972676;28;20226;-66
2023/07/20 00:46:41;;;;;;;6.00;3.70;;;;;;;;;;4972618;28;20201;-66
2023/07/20 00:49:08;;;;;;;5.00;3.13;;;;;;;;;;4955451;28;20744;-66
2023/07/20 00:51:37;;;;;;;6.80;2.80;;;;;;;;;;4972602;28;20288;-66
2023/07/20 01:29:18;;;;;;;3.00;2.23;;;;;;;;;;4971600;28;20244;-66
2023/07/20 01:31:47;;;;;;;6.30;2.60;;;;;;;;;;4971736;28;20228;-66
2023/07/20 01:34:14;;;;;;;5.07;2.63;;;;;;;;;;4954700;28;20209;-66
2023/07/20 01:36:41;;;;;;;5.13;2.77;;;;;;;;;;4971490;28;20252;-66
2023/07/20 01:39:25;;;;;;;2.97;2.60;;;;;;;;;;4955819;28;20312;-66
2023/07/20 01:41:52;;;;;;;3.90;2.77;;;;;;;;;;4971608;28;20635;-66
2023/07/20 01:44:19;;;;;;;4.67;2.33;;;;;;;;;;4954097;28;20336;-66
2023/07/20 01:46:45;;;;;;;3.47;2.57;;;;;;;;;;4971596;28;20577;-66
2023/07/20 01:49:12;;;;;;;5.33;2.43;;;;;;;;;;4971580;28;20189;-66
2023/07/20 01:51:40;;;;;;;4.43;2.47;;;;;;;;;;4971356;28;20217;-67
2023/07/20 01:54:08;;;;;;;6.10;2.60;;;;;;;;;;4971323;28;20206;-66
2023/07/20 01:56:35;;;;;;;3.73;2.83;;;;;;;;;;4971323;28;20698;-66
2023/07/20 01:59:02;;;;;;;5.73;3.10;;;;;;;;;;4970727;28;20561;-66
2023/07/20 02:01:29;;;;;;;5.17;3.10;;;;;;;;;;4954247;28;20244;-66
2023/07/20 02:03:56;;;;;;;4.73;3.07;;;;;;;;;;4971324;28;20193;-66
2023/07/20 02:06:40;;;;;;;5.27;2.90;;;;;;;;;;4971244;28;20203;-66
2023/07/20 02:09:07;;;;;;;7.10;2.57;;;;;;;;;;4971162;28;20185;-66
2023/07/20 02:11:51;;;;;;;3.77;2.77;;;;;;;;;;4971185;28;20216;-66
2023/07/20 02:14:19;;;;;;;4.77;2.60;;;;;;;;;;4971003;28;20193;-66
2023/07/20 02:16:46;;;;;;;4.07;2.40;;;;;;;;;;4953857;28;20201;-66
2023/07/20 02:19:14;;;;;;;7.40;2.40;;;;;;;;;;4970960;28;20186;-66
2023/07/20 02:21:40;;;;;;;4.97;2.67;;;;;;;;;;4971274;28;20216;-66
2023/07/20 02:24:07;;;;;;;4.97;2.43;;;;;;;;;;4970635;28;20269;-66
2023/07/20 02:26:34;;;;;;;3.93;2.30;;;;;;;;;;4953704;28;20665;-66
2023/07/20 02:29:04;;;;;;;4.20;2.70;;;;;;;;;;4970757;28;20190;-66
2023/07/20 02:31:31;;;;;;;4.90;3.03;;;;;;;;;;4970896;28;20221;-66
2023/07/20 02:33:57;;;;;;;4.10;3.07;;;;;;;;;;4953336;28;20193;-66
2023/07/20 02:36:24;;;;;;;7.10;2.90;;;;;;;;;;4970345;28;20196;-66
2023/07/20 02:39:09;;;;;;;7.17;2.90;;;;;;;;;;4970606;28;20183;-67
2023/07/20 02:41:36;;;;;;;6.20;3.00;;;;;;;;;;4969829;28;20205;-66
2023/07/20 02:44:03;;;;;;;5.70;2.87;;;;;;;;;;4970059;28;20268;-66
2023/07/20 02:46:30;;;;;;;4.63;2.87;;;;;;;;;;4970948;28;20226;-66
2023/07/20 02:48:57;;;;;;;8.57;3.10;;;;;;;;;;4970238;28;20182;-66
2023/07/20 02:51:24;;;;;;;5.20;2.50;;;;;;;;;;4952369;28;20244;-66
2023/07/20 02:53:51;;;;;;;3.33;3.00;;;;;;;;;;4970434;28;20194;-66
2023/07/20 02:56:18;;;;;;;3.93;2.70;;;;;;;;;;4970271;28;20190;-66
2023/07/20 02:59:02;;;;;;;5.73;3.07;;;;;;;;;;4969750;28;20780;-66
2023/07/20 03:01:31;;;;;;;6.20;3.00;;;;;;;;;;4970373;28;20273;-66
2023/07/20 03:04:16;;;;;;;7.33;3.77;;;;;;;;;;4952911;28;20188;-66
2023/07/20 03:06:43;;;;;;;3.87;2.80;;;;;;;;;;4970030;28;20195;-66
2023/07/20 03:09:27;;;;;;;3.30;2.53;;;;;;;;;;4952643;28;20696;-66
2023/07/20 03:11:53;;;;;;;5.87;2.70;;;;;;;;;;4952751;28;20213;-66
2023/07/20 03:14:21;;;;;;;4.47;2.80;;;;;;;;;;4969863;28;20193;-66
2023/07/20 03:16:48;;;;;;;6.30;3.20;;;;;;;;;;4952913;28;20255;-66
2023/07/20 03:19:15;;;;;;;4.43;2.50;;;;;;;;;;4952444;28;20197;-66
2023/07/20 03:21:59;;;;;;;2.90;2.60;;;;;;;;;;4969898;28;21029;-66
2023/07/20 03:24:26;;;;;;;3.97;2.80;;;;;;;;;;4969421;28;20194;-66
2023/07/20 03:27:10;;;;;;;4.67;2.60;;;;;;;;;;4952344;28;20180;-66
2023/07/20 03:29:39;;;;;;;4.57;2.97;;;;;;;;;;4969628;28;20283;-66
2023/07/20 03:32:24;;;;;;;7.23;3.20;;;;;;;;;;4951808;28;20232;-66
2023/07/20 03:34:51;;;;;;;5.47;3.00;;;;;;;;;;4970036;28;20200;-66
2023/07/20 03:37:36;;;;;;;4.37;2.63;;;;;;;;;;4970106;28;20176;-66
2023/07/20 03:40:04;;;;;;;3.83;2.67;;;;;;;;;;4952085;28;20193;-66
2023/07/20 03:42:48;;;;;;;4.13;2.60;;;;;;;;;;4969506;28;23016;-66
2023/07/20 03:45:15;;;;;;;4.00;2.30;;;;;;;;;;4969481;28;20597;-66
2023/07/20 03:47:59;;;;;;;4.13;2.60;;;;;;;;;;4969696;28;20825;-66
2023/07/20 03:50:26;;;;;;;6.80;2.60;;;;;;;;;;4969078;28;20655;-66
2023/07/20 03:53:10;;;;;;;4.13;2.67;;;;;;;;;;4969494;28;20276;-66
2023/07/20 03:55:37;;;;;;;6.57;3.00;;;;;;;;;;4969807;28;20247;-66
2023/07/20 03:58:03;;;;;;;6.13;3.20;;;;;;;;;;4951445;28;20208;-67
2023/07/20 04:00:30;;;;;;;5.93;3.20;;;;;;;;;;4969399;28;20224;-66
2023/07/20 04:02:57;;;;;;;4.87;3.53;;;;;;;;;;4969001;28;20197;-66
2023/07/20 04:05:42;;;;;;;4.43;3.50;;;;;;;;;;4951819;28;20181;-66
2023/07/20 04:08:08;;;;;;;5.30;3.87;;;;;;;;;;4969491;28;20193;-66
2023/07/20 04:10:52;;;;;;;6.17;4.10;;;;;;;;;;4969217;28;20664;-66
2023/07/20 04:13:19;;;;;;;5.03;3.50;;;;;;;;;;4952113;28;20976;-66
2023/07/20 04:16:04;;;;;;;5.30;3.30;;;;;;;;;;4968776;28;20173;-66
2023/07/20 04:18:30;;;;;;;5.80;3.77;;;;;;;;;;4969392;28;20275;-66
2023/07/20 04:21:15;;;;;;;5.23;3.33;;;;;;;;;;4969428;28;20180;-66
2023/07/20 04:23:41;;;;;;;7.70;3.37;;;;;;;;;;4951626;28;20320;-67
2023/07/20 04:26:08;;;;;;;4.40;3.30;;;;;;;;;;4968744;28;20276;-66
2023/07/20 04:28:35;;;;;;;4.00;2.70;;;;;;;;;;4952349;28;20209;-66
2023/07/20 04:31:12;;;;;;;3.83;3.10;;;;;;;;;;4951564;28;20200;-66
2023/07/20 04:33:39;;;;;;;5.17;3.20;;;;;;;;;;4952160;28;20304;-66
2023/07/20 04:36:06;;;;;;;5.53;3.30;;;;;;;;;;4951478;28;20644;-67
2023/07/20 04:38:34;;;;;;;9.33;3.63;;;;;;;;;;4951969;28;20285;-66
2023/07/20 04:41:20;;;;;;;6.43;3.30;;;;;;;;;;4951433;28;20204;-66
2023/07/20 04:43:49;;;;;;;7.43;3.80;;;;;;;;;;4951929;28;20234;-66
2023/07/20 04:46:33;;;;;;;4.30;3.70;;;;;;;;;;4969626;28;20185;-66
2023/07/20 04:49:02;;;;;;;5.93;3.60;;;;;;;;;;4951589;28;20264;-66
2023/07/20 04:51:47;;;;;;;6.20;3.40;;;;;;;;;;4948369;29;20216;-66
2023/07/20 04:54:13;;;;;;;6.53;3.53;;;;;;;;;;4949554;29;20639;-66
2023/07/20 04:56:41;;;;;;;5.07;3.30;;;;;;;;;;4932293;29;20236;-66
2023/07/20 04:59:09;;;;;;;4.50;3.37;;;;;;;;;;4942273;28;20245;-66
2023/07/20 05:01:36;;;;;;;3.80;3.37;;;;;;;;;;4969216;28;20201;-66
2023/07/20 05:04:03;;;;;;;4.33;3.30;;;;;;;;;;4968199;28;20200;-66
2023/07/20 05:06:30;;;;;;;5.57;3.57;;;;;;;;;;4967499;28;20248;-66
2023/07/20 05:08:59;;;;;;;4.90;3.37;;;;;;;;;;4951552;28;20818;-66
2023/07/20 05:11:45;;;;;;;6.43;3.17;;;;;;;;;;4968480;28;20603;-66
2023/07/20 05:14:12;;;;;;;4.70;3.30;;;;;;;;;;4953017;28;21002;-66
2023/07/20 05:16:39;;;;;;;7.03;3.90;;;;;;;;;;4955228;28;20668;-66
2023/07/20 05:19:06;;;;;;;6.17;3.63;;;;;;;;;;4954698;28;20295;-66
2023/07/20 05:21:34;;;;;;;5.70;3.60;;;;;;;;;;4972281;28;20244;-66
2023/07/20 05:24:17;;;;;;;4.87;3.40;;;;;;;;;;4955021;28;20181;-66
2023/07/20 05:26:44;;;;;;;4.93;3.13;;;;;;;;;;4971362;28;20186;-66
2023/07/20 05:29:11;;;;;;;6.30;3.90;;;;;;;;;;4972270;28;20197;-66
2023/07/20 05:31:38;;;;;;;4.43;3.50;;;;;;;;;;4972215;28;20201;-66
2023/07/20 05:34:04;;;;;;;5.47;3.37;;;;;;;;;;4971719;28;20261;-67
2023/07/20 05:36:49;;;;;;;7.13;3.00;;;;;;;;;;4957381;28;20207;-67
2023/07/20 05:39:17;;;;;;;5.17;2.60;;;;;;;;;;4972081;28;20197;-67
2023/07/20 05:42:01;;;;;;;4.70;2.57;;;;;;;;;;4971025;28;20181;-67
2023/07/20 05:44:27;;;;;;;3.53;2.30;;;;;;;;;;4970796;28;20723;-67
2023/07/20 05:46:54;;;;;;;4.47;2.30;;;;;;;;;;4950683;29;20733;-67
2023/07/20 05:49:24;;;;;;;3.27;2.13;;;;;;;;;;4967497;28;20288;-67
2023/07/20 05:51:50;;;;;;;4.50;2.50;;;;;;;;;;4971050;28;20272;-67
2023/07/20 05:54:17;;;;;;;3.70;2.10;;;;;;;;;;4971095;28;20272;-67
2023/07/20 05:56:45;;;;;;;4.20;2.30;;;;;;;;;;4970671;28;20604;-67
2023/07/20 05:59:11;;;;;;;4.90;2.07;;;;;;;;;;4970928;28;20204;-67
2023/07/20 06:01:38;;;;;;;3.53;2.40;;;;;;;;;;4971694;28;20577;-67
2023/07/20 06:04:05;;;;;;;5.27;2.20;;;;;;;;;;4970520;28;20197;-67
2023/07/20 06:06:32;;;;;;;5.07;2.10;;;;;;;;;;4971092;28;20201;-66
2023/07/20 06:09:03;;;;;;;3.23;2.30;;;;;;;;;;4970796;28;20216;-66
2023/07/20 06:11:30;;;;;;;5.23;2.43;;;;;;;;;;4970498;28;20225;-66
2023/07/20 06:13:57;;;;;;;3.13;2.40;;;;;;;;;;4970711;28;20193;-66
2023/07/20 06:16:41;;;;;;;3.93;2.07;;;;;;;;;;4970697;28;20240;-67
2023/07/20 06:19:10;;;;;;;4.60;2.20;;;;;;;;;;4970751;28;20699;-66
2023/07/20 06:21:37;;;;;;;5.33;2.30;;;;;;;;;;4970376;28;20193;-66
2023/07/20 06:24:04;;;;;;;1.60;1.50;;;;;;;;;;4970178;28;20316;-66
2023/07/20 06:26:32;;;;;;;2.77;1.77;;;;;;;;;;4951056;28;20249;-66
2023/07/20 06:29:16;;;;;;;3.93;1.53;;;;;;;;;;4956278;28;20252;-66
2023/07/20 06:31:42;;;;;;;3.83;1.53;;;;;;;;;;4969989;28;20309;-66
2023/07/20 06:34:09;;;;;;;2.47;1.40;;;;;;;;;;4970141;28;20201;-66
2023/07/20 06:36:36;;;;;;;4.27;1.87;;;;;;;;;;4970361;28;20252;-66
2023/07/20 06:39:03;;;;;;;2.30;1.30;;;;;;;;;;4970273;28;20321;-66
2023/07/20 06:41:32;;;;;;;3.30;1.33;;;;;;;;;;4969917;28;20701;-66
2023/07/20 06:44:03;;;;;;;2.13;1.20;;;;;;;;;;4969782;28;20229;-66
2023/07/20 06:46:29;;;;;;;1.20;1.10;;;;;;;;;;4970250;28;20193;-65
2023/07/20 06:48:56;;;;;;;2.53;1.30;;;;;;;;;;4970032;28;20198;-66
2023/07/20 06:51:26;;;;;;;2.53;1.37;;;;;;;;;;4969691;28;20189;-66
2023/07/20 06:54:10;;;;;;;1.40;1.20;;;;;;;;;;4969944;28;20192;-66
2023/07/20 06:56:37;;;;;;;2.03;1.40;;;;;;;;;;4969899;28;20244;-66
2023/07/20 06:59:10;;;;;;;2.07;1.40;;;;;;;;;;4969620;28;20264;-66
2023/07/20 07:01:37;;;;;;;2.43;1.60;;;;;;;;;;4970807;28;20193;-66
2023/07/20 07:04:05;;;;;;;2.87;1.80;;;;;;;;;;4972089;28;20208;-67
2023/07/20 07:06:32;;;;;;;3.97;1.70;;;;;;;;;;4972314;28;20273;-66
2023/07/20 07:08:59;;;;;;;2.77;1.80;;;;;;;;;;4970322;28;20189;-66
2023/07/20 07:11:26;;;;;;;3.03;1.70;;;;;;;;;;4969215;28;20201;-66
2023/07/20 07:13:54;;;;;;;2.97;1.90;;;;;;;;;;4969513;28;20212;-66
2023/07/20 07:16:24;;;;;;;3.37;2.07;;;;;;;;;;4969506;28;20688;-66
2023/07/20 07:18:51;;;;;;;2.93;1.80;;;;;;;;;;4969643;28;20204;-66
2023/07/20 07:21:18;;;;;;;1.90;1.50;;;;;;;;;;4969719;28;20224;-66
2023/07/20 07:23:45;;;;;;;3.87;1.40;;;;;;;;;;4969136;28;20196;-66
2023/07/20 07:26:12;;;;;;;1.83;1.30;;;;;;;;;;4969058;28;20205;-66
2023/07/20 07:28:39;;;;;;;2.60;1.20;;;;;;;;;;4969429;28;20288;-66
2023/07/20 07:31:08;;;;;;;2.53;1.40;;;;;;;;;;4969191;28;20193;-66
2023/07/20 07:33:52;;;;;;;2.67;1.30;;;;;;;;;;4969349;28;20188;-66
2023/07/20 07:36:19;;;;;;;1.53;1.23;;;;;;;;;;4968592;28;20225;-66
2023/07/20 07:38:46;;;;;;;1.40;0.80;;;;;;;;;;4968894;28;20664;-66
2023/07/20 07:41:16;;;;;;;1.53;0.90;;;;;;;;;;4969047;28;20225;-66
2023/07/20 07:43:43;;;;;;;0.90;0.80;;;;;;;;;;4968883;28;20637;-66
2023/07/20 07:46:09;;;;;;;2.37;1.00;;;;;;;;;;4951685;28;20197;-67
2023/07/20 07:48:36;;;;;;;1.83;0.80;;;;;;;;;;4969205;28;20193;-67
2023/07/20 07:51:03;;;;;;;1.00;0.77;;;;;;;;;;4968591;28;20748;-66
2023/07/20 07:53:30;;;;;;;2.07;0.83;;;;;;;;;;4968933;28;20714;-66
2023/07/20 07:55:56;;;;;;;0.80;0.70;;;;;;;;;;4969117;28;20201;-66
2023/07/20 07:58:23;;;;;;;1.77;0.90;;;;;;;;;;4951689;28;20661;-66
2023/07/20 08:00:50;;;;;;;2.73;1.13;;;;;;;;;;4969116;28;20197;-66
2023/07/20 08:03:17;;;;;;;1.97;1.10;;;;;;;;;;4969274;28;20632;-66
2023/07/20 08:05:44;;;;;;;2.10;1.10;;;;;;;;;;4968438;28;20186;-66
2023/07/20 08:08:10;;;;;;;1.67;0.70;;;;;;;;;;4968833;28;20676;-66
2023/07/20 08:10:37;;;;;;;2.63;1.23;;;;;;;;;;4969096;28;20224;-66
2023/07/20 08:13:04;;;;;;;2.60;0.80;;;;;;;;;;4968479;28;20209;-66
2023/07/20 08:15:49;;;;;;;2.07;0.97;;;;;;;;;;4968849;28;21114;-66
2023/07/20 08:18:16;;;;;;;0.80;0.60;;;;;;;;;;4951550;28;20692;-67
2023/07/20 08:21:00;;;;;;;1.43;0.60;;;;;;;;;;4969048;28;20619;-66
2023/07/20 08:23:27;;;;;;;1.13;0.60;;;;;;;;;;4968485;28;20276;-66
2023/07/20 08:25:54;;;;;;;1.03;0.60;;;;;;;;;;4968970;28;20198;-66
2023/07/20 08:28:21;;;;;;;0.80;0.60;;;;;;;;;;4968836;28;20334;-66
2023/07/20 08:30:48;;;;;;;1.43;0.60;;;;;;;;;;4968743;28;20724;-67
2023/07/20 08:33:15;;;;;;;1.10;0.53;;;;;;;;;;4969205;28;20300;-66
2023/07/20 08:35:42;;;;;;;0.50;0.50;;;;;;;;;;4968713;28;20276;-66
2023/07/20 08:38:09;;;;;;;0.93;0.70;;;;;;;;;;4951968;28;20276;-66
2023/07/20 08:40:56;;;;;;;1.70;0.70;;;;;;;;;;4969116;28;20546;-66
2023/07/20 08:43:24;;;;;;;1.40;0.70;;;;;;;;;;4968760;28;20237;-66
2023/07/20 08:46:08;;;;;;;1.57;1.20;;;;;;;;;;4969416;28;20169;-66
2023/07/20 08:48:35;;;;;;;2.23;1.00;;;;;;;;;;4954089;28;20185;-66
2023/07/20 08:51:19;;;;;;;0.77;0.60;;;;;;;;;;4944666;28;20173;-66
2023/07/20 08:53:46;;;;;;;1.10;0.67;;;;;;;;;;4938892;28;20244;-66
2023/07/20 08:56:30;;;;;;;2.27;0.90;;;;;;;;;;4972454;28;20272;-66
2023/07/20 08:58:57;;;;;;;2.97;0.93;;;;;;;;;;4972551;28;20186;-66
2023/07/20 09:01:41;;;;;;;1.03;0.60;;;;;;;;;;4958050;28;20244;-66
2023/07/20 09:04:08;;;;;;;0.70;0.50;;;;;;;;;;4972330;28;20201;-66
2023/07/20 09:06:35;;;;;;;1.23;0.60;;;;;;;;;;4955553;28;20198;-66
2023/07/20 09:09:02;;;;;;;1.73;0.57;;;;;;;;;;4972064;28;20241;-66
2023/07/20 09:11:29;;;;;;;1.40;0.70;;;;;;;;;;4972310;28;20227;-66
2023/07/20 09:14:05;;;;;;;0.83;0.50;;;;;;;;;;4972297;28;20775;-66
2023/07/20 09:16:32;;;;;;;1.17;0.40;;;;;;;;;;4972498;28;20209;-66
2023/07/20 09:18:59;;;;;;;0.67;0.50;;;;;;;;;;4972184;28;20933;-66
2023/07/20 09:21:32;;;;;;;0.63;0.40;;;;;;;;;;4971682;28;20214;-66
2023/07/20 09:23:59;;;;;;;0.80;0.40;;;;;;;;;;4972051;28;20202;-66
2023/07/20 09:26:26;;;;;;;1.17;0.50;;;;;;;;;;4954701;28;20193;-66
2023/07/20 09:28:55;;;;;;;1.23;0.50;;;;;;;;;;4972135;28;20193;-66
2023/07/20 09:31:24;;;;;;;0.67;0.40;;;;;;;;;;4971953;28;21050;-66
2023/07/20 09:33:52;;;;;;;0.93;0.53;;;;;;;;;;4971855;28;20225;-66
2023/07/20 09:36:22;;;;;;;2.33;0.53;;;;;;;;;;4971478;28;20201;-66
2023/07/20 09:39:09;;;;;;;1.07;0.50;;;;;;;;;;4971967;28;20197;-66
2023/07/20 09:41:44;;;;;;;2.90;0.60;;;;;;;;;;4971916;28;20675;-66
2023/07/20 09:44:15;;;;;;;0.40;0.40;;;;;;;;;;4971703;28;20229;-66
2023/07/20 09:46:46;;;;;;;0.63;0.50;;;;;;;;;;4971998;28;20586;-66
2023/07/20 09:49:21;;;;;;;0.80;0.60;;;;;;;;;;4971768;28;20748;-66
2023/07/20 09:51:51;;;;;;;1.30;0.73;;;;;;;;;;4971830;28;20216;-67
2023/07/20 09:54:44;;;;;;;1.20;0.50;;;;;;;;;;4971255;28;20264;-67
2023/07/20 09:57:13;;;;;;;1.67;0.90;;;;;;;;;;4954602;28;20193;-67
2023/07/20 09:59:40;;;;;;;1.03;0.70;;;;;;;;;;4970418;28;20248;-67
2023/07/20 10:02:09;;;;;;;1.93;0.63;;;;;;;;;;4971337;28;20217;-67
2023/07/20 10:04:35;;;;;;;0.50;0.50;;;;;;;;;;4954386;28;20665;-67
2023/07/20 10:07:21;;;;;;;2.03;0.67;;;;;;;;;;4956836;28;20182;-64
2023/07/20 10:09:47;;;;;;;1.57;0.70;;;;;;;;;;4971278;28;20236;-64
2023/07/20 10:12:14;;;;;;;1.27;0.70;;;;;;;;;;4954344;28;20265;-66
2023/07/20 10:14:44;;;;;;;1.33;0.70;;;;;;;;;;4953910;28;20637;-65
2023/07/20 10:17:12;;;;;;;0.77;0.70;;;;;;;;;;4954346;28;20216;-66
2023/07/20 10:19:57;;;;;;;0.80;0.50;;;;;;;;;;4971046;28;20173;-65
2023/07/20 10:22:27;;;;;;;0.60;0.60;;;;;;;;;;4954139;28;20190;-65
2023/07/20 10:25:11;;;;;;;1.83;0.70;;;;;;;;;;4971291;28;20188;-64
2023/07/20 10:27:39;;;;;;;1.43;0.70;;;;;;;;;;4970824;28;20248;-66
2023/07/20 10:30:06;;;;;;;1.80;0.60;;;;;;;;;;4970678;28;20629;-64
2023/07/20 10:32:33;;;;;;;1.20;0.63;;;;;;;;;;4970984;28;20233;-65
2023/07/20 10:35:00;;;;;;;0.87;0.60;;;;;;;;;;4953440;28;20204;-65
2023/07/20 10:37:53;;;;;;;0.50;0.50;;;;;;;;;;4970908;28;20177;-65
2023/07/20 10:40:27;;;;;;;1.33;0.50;;;;;;;;;;4970731;28;20265;-65
2023/07/20 10:42:58;;;;;;;1.00;0.50;;;;;;;;;;4970586;28;20229;-65
2023/07/20 10:45:41;;;;;;;1.53;0.50;;;;;;;;;;4970232;28;20620;-64
2023/07/20 10:48:15;;;;;;;3.83;0.83;;;;;;;;;;4970713;28;20193;-65
2023/07/20 10:50:42;;;;;;;1.07;0.70;;;;;;;;;;4969983;28;20209;-66
2023/07/20 10:53:10;;;;;;;0.97;0.50;;;;;;;;;;4970602;28;20268;-65
2023/07/20 10:55:36;;;;;;;1.53;0.40;;;;;;;;;;4970788;28;20369;-66
2023/07/20 10:58:14;;;;;;;1.00;0.50;;;;;;;;;;4969903;28;20276;-66
2023/07/20 11:00:57;;;;;;;0.77;0.50;;;;;;;;;;4970348;28;20193;-66
2023/07/20 11:03:30;;;;;;;1.00;0.50;;;;;;;;;;4969836;28;20193;-65
2023/07/20 11:06:21;;;;;;;1.37;0.60;;;;;;;;;;4970003;28;20190;-65
2023/07/20 11:08:48;;;;;;;2.77;0.97;;;;;;;;;;4970491;28;20194;-66
2023/07/20 11:11:33;;;;;;;2.40;1.00;;;;;;;;;;4970023;28;20182;-65
2023/07/20 11:14:01;;;;;;;1.37;1.07;;;;;;;;;;4970113;28;20727;-65
2023/07/20 11:16:38;;;;;;;1.73;0.63;;;;;;;;;;4970638;28;20206;-65
2023/07/20 11:19:05;;;;;;;0.97;0.60;;;;;;;;;;4969741;28;20174;-65
2023/07/20 11:21:36;;;;;;;3.90;0.67;;;;;;;;;;4970204;28;20204;-65
2023/07/20 11:24:21;;;;;;;0.57;0.50;;;;;;;;;;4969327;28;20196;-66
2023/07/20 11:26:49;;;;;;;0.80;0.60;;;;;;;;;;4969813;28;20240;-66
2023/07/20 11:29:16;;;;;;;0.80;0.50;;;;;;;;;;4969833;28;20185;-66
2023/07/20 11:32:00;;;;;;;1.20;0.30;;;;;;;;;;4970030;28;20259;-67
2023/07/20 11:34:44;;;;;;;1.17;0.40;;;;;;;;;;4969570;28;20205;-66
2023/07/20 11:37:11;;;;;;;0.60;0.40;;;;;;;;;;4951936;28;20201;-66
2023/07/20 11:39:38;;;;;;;0.70;0.30;;;;;;;;;;4952338;28;20189;-67
2023/07/20 11:42:05;;;;;;;1.03;0.37;;;;;;;;;;4951553;28;20193;-67
2023/07/20 11:44:31;;;;;;;0.73;0.40;;;;;;;;;;4969041;28;20225;-67
2023/07/20 11:47:03;;;;;;;0.60;0.40;;;;;;;;;;4952486;28;20193;-66
2023/07/20 11:49:39;;;;;;;0.97;0.50;;;;;;;;;;4969452;28;20216;-66
2023/07/20 11:52:23;;;;;;;3.37;0.50;;;;;;;;;;4969075;28;20186;-67
2023/07/20 11:54:50;;;;;;;1.43;0.90;;;;;;;;;;4968893;28;20221;-67
2023/07/20 11:57:20;;;;;;;1.03;0.70;;;;;;;;;;4951967;28;20228;-66
2023/07/20 11:59:55;;;;;;;1.67;0.70;;;;;;;;;;4951894;28;20200;-67
2023/07/20 12:02:22;;;;;;;1.00;0.60;;;;;;;;;;4968696;28;20843;-67
2023/07/20 12:04:49;;;;;;;0.70;0.50;;;;;;;;;;4969295;28;20197;-67
2023/07/20 12:07:16;;;;;;;0.77;0.40;;;;;;;;;;4969336;28;20607;-67
2023/07/20 12:09:42;;;;;;;0.90;0.40;;;;;;;;;;4951173;28;20310;-67
2023/07/20 12:12:18;;;;;;;1.90;0.30;;;;;;;;;;4969001;28;20561;-67
2023/07/20 12:14:45;;;;;;;0.97;0.40;;;;;;;;;;4951473;28;20213;-67
2023/07/20 12:17:12;;;;;;;0.40;0.40;;;;;;;;;;4969104;28;20190;-67
2023/07/20 12:19:42;;;;;;;0.90;0.43;;;;;;;;;;4952208;28;20928;-67
2023/07/20 12:22:11;;;;;;;1.13;0.40;;;;;;;;;;4968927;28;20197;-67
2023/07/20 12:24:38;;;;;;;0.90;0.40;;;;;;;;;;4972828;28;20193;-67
2023/07/20 12:27:05;;;;;;;0.77;0.30;;;;;;;;;;4972149;28;20197;-67
2023/07/20 12:29:49;;;;;;;0.83;0.30;;;;;;;;;;4972894;28;20185;-67
2023/07/20 12:32:16;;;;;;;0.87;0.40;;;;;;;;;;4972551;28;20272;-68
2023/07/20 12:34:43;;;;;;;0.70;0.50;;;;;;;;;;4972164;28;20256;-67
2023/07/20 12:37:10;;;;;;;0.87;0.50;;;;;;;;;;4972671;28;20288;-67
2023/07/20 12:39:39;;;;;;;0.87;0.40;;;;;;;;;;4972532;28;20553;-67
2023/07/20 12:42:23;;;;;;;0.40;0.40;;;;;;;;;;4956042;28;20193;-67
2023/07/20 12:44:50;;;;;;;0.87;0.43;;;;;;;;;;4972529;28;20320;-67
2023/07/20 12:47:18;;;;;;;0.50;0.50;;;;;;;;;;4952255;29;20198;-67
2023/07/20 12:49:45;;;;;;;0.63;0.40;;;;;;;;;;4964575;28;20268;-67
2023/07/20 12:52:12;;;;;;;0.40;0.40;;;;;;;;;;4972363;28;20287;-67
2023/07/20 12:55:01;;;;;;;1.43;0.50;;;;;;;;;;4972038;28;20249;-68
2023/07/20 12:57:29;;;;;;;0.63;0.50;;;;;;;;;;4972413;28;20628;-67
2023/07/20 12:59:56;;;;;;;0.40;0.30;;;;;;;;;;4971862;28;20193;-67
2023/07/20 13:02:23;;;;;;;0.37;0.37;;;;;;;;;;4972024;28;20256;-67
2023/07/20 13:04:52;;;;;;;0.80;0.40;;;;;;;;;;4972296;28;20194;-67
2023/07/20 13:07:29;;;;;;;0.40;0.40;;;;;;;;;;4972560;28;20181;-67
2023/07/20 13:10:00;;;;;;;1.03;0.50;;;;;;;;;;4972325;28;20287;-68
2023/07/20 13:12:27;;;;;;;0.40;0.40;;;;;;;;;;4951845;29;20206;-67
2023/07/20 13:14:54;;;;;;;1.07;0.60;;;;;;;;;;4970494;28;20206;-67
2023/07/20 13:17:21;;;;;;;0.87;0.40;;;;;;;;;;4972168;28;20201;-67
2023/07/20 13:19:47;;;;;;;0.90;0.60;;;;;;;;;;4939195;28;20192;-67
2023/07/20 13:22:14;;;;;;;0.73;0.50;;;;;;;;;;4972303;28;20185;-67
2023/07/20 13:24:41;;;;;;;1.17;0.50;;;;;;;;;;4950997;29;20261;-67
2023/07/20 13:27:10;;;;;;;6.13;0.70;;;;;;;;;;4963750;28;20193;-67
2023/07/20 13:29:37;;;;;;;1.57;0.40;;;;;;;;;;4971807;28;20208;-67
2023/07/20 13:32:06;;;;;;;1.07;0.60;;;;;;;;;;4971073;28;20248;-67
2023/07/20 13:38:21;;;;;;;1.07;0.60;;;;;;;;;;4971988;28;20204;-67
2023/07/20 13:40:48;;;;;;;1.33;0.60;;;;;;;;;;4971583;28;20197;-68
2023/07/20 13:43:14;;;;;;;2.20;0.70;;;;;;;;;;4971189;28;20304;-67
2023/07/20 13:45:41;;;;;;;1.30;0.80;;;;;;;;;;4971122;28;20201;-67
2023/07/20 13:48:08;;;;;;;1.00;0.60;;;;;;;;;;4971489;28;20197;-67
2023/07/20 13:50:35;;;;;;;1.10;0.60;;;;;;;;;;4950752;29;20317;-67
2023/07/20 13:53:05;;;;;;;1.57;0.60;;;;;;;;;;4948005;28;20189;-67
2023/07/20 13:55:36;;;;;;;0.83;0.50;;;;;;;;;;4959417;28;20190;-67
2023/07/20 13:58:06;;;;;;;1.40;0.60;;;;;;;;;;4970662;28;20197;-67
2023/07/20 14:00:50;;;;;;;1.37;0.77;;;;;;;;;;4956396;28;20181;-68
2023/07/20 14:03:18;;;;;;;0.90;0.77;;;;;;;;;;4971129;28;20190;-67
2023/07/20 14:05:46;;;;;;;1.17;0.60;;;;;;;;;;4970793;28;20649;-67
2023/07/20 14:08:15;;;;;;;2.60;0.60;;;;;;;;;;4970736;28;20371;-68
2023/07/20 14:10:42;;;;;;;0.50;0.50;;;;;;;;;;4971191;28;21044;-68
2023/07/20 14:13:12;;;;;;;0.60;0.40;;;;;;;;;;4970395;28;20201;-67
2023/07/20 14:15:39;;;;;;;1.97;0.93;;;;;;;;;;4971016;28;20201;-67
2023/07/20 14:18:06;;;;;;;1.07;0.67;;;;;;;;;;4970309;28;20200;-67
2023/07/20 14:20:50;;;;;;;1.33;0.80;;;;;;;;;;4970659;28;20177;-68
2023/07/20 14:23:17;;;;;;;1.93;1.07;;;;;;;;;;4950488;29;20197;-68
2023/07/20 14:26:04;;;;;;;1.60;0.67;;;;;;;;;;4966712;28;20189;-68
2023/07/20 14:28:36;;;;;;;1.47;0.70;;;;;;;;;;4971241;28;20272;-67
2023/07/20 14:31:03;;;;;;;1.73;0.80;;;;;;;;;;4969592;28;20209;-67
2023/07/20 14:33:30;;;;;;;1.93;0.83;;;;;;;;;;4970446;28;20212;-67
2023/07/20 14:35:57;;;;;;;1.40;0.60;;;;;;;;;;4970121;28;20189;-68
2023/07/20 14:38:24;;;;;;;3.27;0.90;;;;;;;;;;4970588;28;20204;-68
2023/07/20 14:40:52;;;;;;;1.13;0.80;;;;;;;;;;4950345;29;20213;-67
2023/07/20 14:43:19;;;;;;;2.60;0.87;;;;;;;;;;4961603;28;20229;-67
2023/07/20 14:45:46;;;;;;;1.13;0.63;;;;;;;;;;4964545;28;20202;-67
2023/07/20 14:48:13;;;;;;;1.57;0.70;;;;;;;;;;4962893;28;20256;-67
2023/07/20 14:50:40;;;;;;;1.90;0.70;;;;;;;;;;4970266;28;20201;-67
2023/07/20 14:53:28;;;;;;;1.57;0.60;;;;;;;;;;4969876;28;20684;-67
2023/07/20 14:56:01;;;;;;;2.57;1.13;;;;;;;;;;4949545;29;20189;-67
2023/07/20 14:58:46;;;;;;;2.43;0.70;;;;;;;;;;4954241;28;20177;-67
2023/07/20 15:01:12;;;;;;;1.70;0.73;;;;;;;;;;4970503;28;20235;-67
2023/07/20 15:03:56;;;;;;;1.60;0.60;;;;;;;;;;4970293;28;20177;-67
2023/07/20 15:06:26;;;;;;;2.33;0.50;;;;;;;;;;4969485;28;20236;-67
2023/07/20 15:09:10;;;;;;;0.87;0.50;;;;;;;;;;4970309;28;20182;-67
2023/07/20 15:11:37;;;;;;;2.47;0.70;;;;;;;;;;4969543;28;20194;-67
2023/07/20 15:14:21;;;;;;;1.27;0.60;;;;;;;;;;4969323;28;20209;-68
2023/07/20 15:16:48;;;;;;;0.70;0.50;;;;;;;;;;4969989;28;20197;-67
2023/07/20 15:19:34;;;;;;;0.70;0.40;;;;;;;;;;4970601;28;20633;-67
2023/07/20 15:22:01;;;;;;;2.57;0.90;;;;;;;;;;4969817;28;20193;-67
2023/07/20 15:24:46;;;;;;;0.77;0.50;;;;;;;;;;4969743;28;20173;-67
2023/07/20 15:27:12;;;;;;;0.80;0.50;;;;;;;;;;4952702;28;20284;-67
2023/07/20 15:29:40;;;;;;;0.47;0.40;;;;;;;;;;4952693;28;20226;-67
2023/07/20 15:32:08;;;;;;;2.80;0.80;;;;;;;;;;4969661;28;20205;-67
2023/07/20 15:34:35;;;;;;;2.33;0.60;;;;;;;;;;4970167;28;20221;-67
2023/07/20 15:37:02;;;;;;;1.17;0.60;;;;;;;;;;4969417;28;20196;-67
2023/07/20 15:39:29;;;;;;;1.33;0.70;;;;;;;;;;4969956;28;20189;-67
2023/07/20 15:41:56;;;;;;;1.83;0.50;;;;;;;;;;4952145;28;20220;-67
2023/07/20 15:44:23;;;;;;;1.60;0.60;;;;;;;;;;4969180;28;20282;-67